sensor_id;sensor_type;location;lat;lon;timestamp;P1;durP1;ratioP1;P2;durP2;ratioP2
58360;SDS011;44164;44.954;10.068;2023-06-10T00:01:59;14.73;;;9.63;;
58360;SDS011;44164;44.954;10.068;2023-06-10T00:04:26;11.07;;;9.50;;
58360;SDS011;44164;44.954;10.068;2023-06-10T00:06:52;11.88;;;10.27;;
58360;SDS011;44164;44.954;10.068;2023-06-10T00:09:19;12.48;;;9.13;;
58360;SDS011;44164;44.954;10.068;2023-06-10T00:11:47;11.27;;;9.32;;
58360;SDS011;44164;44.954;10.068;2023-06-10T00:14:13;14.57;;;9.13;;
58360;SDS011;44164;44.954;10.068;2023-06-10T00:16:39;10.05;;;8.75;;
58360;SDS011;44164;44.954;10.068;2023-06-10T00:19:06;10.40;;;8.95;;
58360;SDS011;44164;44.954;10.068;2023-06-10T00:21:34;11.45;;;8.60;;
58360;SDS011;44164;44.954;10.068;2023-06-10T00:24:08;10.40;;;9.00;;
58360;SDS011;44164;44.954;10.068;2023-06-10T00:26:38;12.32;;;9.25;;
58360;SDS011;44164;44.954;10.068;2023-06-10T00:29:05;10.25;;;9.18;;
58360;SDS011;44164;44.954;10.068;2023-06-10T00:31:33;11.18;;;8.48;;
58360;SDS011;44164;44.954;10.068;2023-06-10T00:34:00;11.38;;;9.23;;
58360;SDS011;44164;44.954;10.068;2023-06-10T00:36:26;14.13;;;9.65;;
58360;SDS011;44164;44.954;10.068;2023-06-10T00:38:53;11.75;;;9.60;;
58360;SDS011;44164;44.954;10.068;2023-06-10T00:41:19;11.25;;;9.45;;
58360;SDS011;44164;44.954;10.068;2023-06-10T00:43:45;10.65;;;8.75;;
58360;SDS011;44164;44.954;10.068;2023-06-10T00:46:11;10.95;;;9.85;;
58360;SDS011;44164;44.954;10.068;2023-06-10T00:48:39;10.50;;;9.40;;
58360;SDS011;44164;44.954;10.068;2023-06-10T00:51:06;11.80;;;9.77;;
58360;SDS011;44164;44.954;10.068;2023-06-10T00:53:35;10.55;;;9.52;;
58360;SDS011;44164;44.954;10.068;2023-06-10T00:56:05;13.27;;;10.00;;
58360;SDS011;44164;44.954;10.068;2023-06-10T00:58:32;13.93;;;10.37;;
58360;SDS011;44164;44.954;10.068;2023-06-10T01:00:58;11.23;;;10.15;;
58360;SDS011;44164;44.954;10.068;2023-06-10T01:03:27;11.48;;;10.27;;
58360;SDS011;44164;44.954;10.068;2023-06-10T01:05:57;11.05;;;8.73;;
58360;SDS011;44164;44.954;10.068;2023-06-10T01:08:35;12.73;;;9.30;;
58360;SDS011;44164;44.954;10.068;2023-06-10T01:11:08;12.02;;;10.55;;
58360;SDS011;44164;44.954;10.068;2023-06-10T01:13:42;16.25;;;11.32;;
58360;SDS011;44164;44.954;10.068;2023-06-10T01:16:09;14.70;;;10.53;;
58360;SDS011;44164;44.954;10.068;2023-06-10T01:18:39;12.40;;;10.65;;
58360;SDS011;44164;44.954;10.068;2023-06-10T01:23:33;11.55;;;10.00;;
58360;SDS011;44164;44.954;10.068;2023-06-10T01:26:03;14.00;;;10.50;;
58360;SDS011;44164;44.954;10.068;2023-06-10T01:28:38;13.15;;;10.63;;
58360;SDS011;44164;44.954;10.068;2023-06-10T01:33:49;11.45;;;9.70;;
58360;SDS011;44164;44.954;10.068;2023-06-10T01:36:18;13.70;;;10.00;;
58360;SDS011;44164;44.954;10.068;2023-06-10T01:38:45;13.37;;;9.87;;
58360;SDS011;44164;44.954;10.068;2023-06-10T01:41:14;12.15;;;10.13;;
58360;SDS011;44164;44.954;10.068;2023-06-10T01:43:43;11.13;;;10.02;;
58360;SDS011;44164;44.954;10.068;2023-06-10T01:46:10;10.13;;;9.13;;
58360;SDS011;44164;44.954;10.068;2023-06-10T01:48:40;10.02;;;9.02;;
58360;SDS011;44164;44.954;10.068;2023-06-10T01:51:08;13.55;;;9.85;;
58360;SDS011;44164;44.954;10.068;2023-06-10T01:53:35;13.20;;;9.23;;
58360;SDS011;44164;44.954;10.068;2023-06-10T01:56:01;11.48;;;8.88;;
58360;SDS011;44164;44.954;10.068;2023-06-10T01:58:28;11.65;;;8.15;;
58360;SDS011;44164;44.954;10.068;2023-06-10T02:00:55;17.00;;;9.43;;
58360;SDS011;44164;44.954;10.068;2023-06-10T02:03:21;15.30;;;9.32;;
58360;SDS011;44164;44.954;10.068;2023-06-10T02:05:47;12.05;;;8.48;;
58360;SDS011;44164;44.954;10.068;2023-06-10T02:08:15;12.10;;;8.52;;
58360;SDS011;44164;44.954;10.068;2023-06-10T02:10:41;12.13;;;8.27;;
58360;SDS011;44164;44.954;10.068;2023-06-10T02:13:07;10.85;;;8.32;;
58360;SDS011;44164;44.954;10.068;2023-06-10T02:15:33;10.73;;;7.97;;
58360;SDS011;44164;44.954;10.068;2023-06-10T02:18:00;11.98;;;7.47;;
58360;SDS011;44164;44.954;10.068;2023-06-10T02:20:26;11.07;;;8.02;;
58360;SDS011;44164;44.954;10.068;2023-06-10T02:22:52;10.75;;;7.13;;
58360;SDS011;44164;44.954;10.068;2023-06-10T02:25:19;13.48;;;7.60;;
58360;SDS011;44164;44.954;10.068;2023-06-10T02:27:45;11.82;;;7.22;;
58360;SDS011;44164;44.954;10.068;2023-06-10T02:30:12;10.73;;;6.53;;
58360;SDS011;44164;44.954;10.068;2023-06-10T02:32:39;9.80;;;5.82;;
58360;SDS011;44164;44.954;10.068;2023-06-10T02:35:05;12.70;;;6.20;;
58360;SDS011;44164;44.954;10.068;2023-06-10T02:37:32;12.70;;;6.75;;
58360;SDS011;44164;44.954;10.068;2023-06-10T02:39:58;9.77;;;5.85;;
58360;SDS011;44164;44.954;10.068;2023-06-10T02:42:26;8.10;;;6.05;;
58360;SDS011;44164;44.954;10.068;2023-06-10T02:44:53;8.82;;;5.80;;
58360;SDS011;44164;44.954;10.068;2023-06-10T02:47:32;9.40;;;5.50;;
58360;SDS011;44164;44.954;10.068;2023-06-10T02:49:59;11.48;;;5.55;;
58360;SDS011;44164;44.954;10.068;2023-06-10T02:52:25;9.95;;;5.75;;
58360;SDS011;44164;44.954;10.068;2023-06-10T02:54:51;15.38;;;5.28;;
58360;SDS011;44164;44.954;10.068;2023-06-10T02:57:18;14.23;;;5.30;;
58360;SDS011;44164;44.954;10.068;2023-06-10T02:59:44;14.30;;;5.85;;
58360;SDS011;44164;44.954;10.068;2023-06-10T03:02:10;8.25;;;5.03;;
58360;SDS011;44164;44.954;10.068;2023-06-10T03:04:43;12.65;;;6.20;;
58360;SDS011;44164;44.954;10.068;2023-06-10T03:07:14;10.68;;;5.32;;
58360;SDS011;44164;44.954;10.068;2023-06-10T03:09:40;10.32;;;5.40;;
58360;SDS011;44164;44.954;10.068;2023-06-10T03:12:10;11.65;;;5.20;;
58360;SDS011;44164;44.954;10.068;2023-06-10T03:14:41;11.35;;;4.95;;
58360;SDS011;44164;44.954;10.068;2023-06-10T03:17:07;7.45;;;4.57;;
58360;SDS011;44164;44.954;10.068;2023-06-10T03:19:40;12.93;;;5.45;;
58360;SDS011;44164;44.954;10.068;2023-06-10T03:22:07;8.50;;;4.97;;
58360;SDS011;44164;44.954;10.068;2023-06-10T03:24:37;11.95;;;5.25;;
58360;SDS011;44164;44.954;10.068;2023-06-10T03:27:07;11.63;;;5.68;;
58360;SDS011;44164;44.954;10.068;2023-06-10T03:29:35;10.40;;;5.30;;
58360;SDS011;44164;44.954;10.068;2023-06-10T03:32:02;8.57;;;4.60;;
58360;SDS011;44164;44.954;10.068;2023-06-10T03:34:30;14.18;;;5.65;;
58360;SDS011;44164;44.954;10.068;2023-06-10T03:36:56;10.25;;;5.20;;
58360;SDS011;44164;44.954;10.068;2023-06-10T03:39:23;7.75;;;4.53;;
58360;SDS011;44164;44.954;10.068;2023-06-10T03:41:50;9.65;;;5.07;;
58360;SDS011;44164;44.954;10.068;2023-06-10T03:44:16;10.55;;;5.00;;
58360;SDS011;44164;44.954;10.068;2023-06-10T03:46:43;12.68;;;5.28;;
58360;SDS011;44164;44.954;10.068;2023-06-10T03:49:09;13.32;;;5.90;;
58360;SDS011;44164;44.954;10.068;2023-06-10T03:51:37;16.30;;;4.97;;
58360;SDS011;44164;44.954;10.068;2023-06-10T03:54:03;11.13;;;5.05;;
58360;SDS011;44164;44.954;10.068;2023-06-10T03:56:30;8.30;;;4.80;;
58360;SDS011;44164;44.954;10.068;2023-06-10T03:58:57;14.60;;;5.63;;
58360;SDS011;44164;44.954;10.068;2023-06-10T04:01:23;11.18;;;5.05;;
58360;SDS011;44164;44.954;10.068;2023-06-10T04:03:50;6.93;;;4.70;;
58360;SDS011;44164;44.954;10.068;2023-06-10T04:06:17;12.38;;;4.63;;
58360;SDS011;44164;44.954;10.068;2023-06-10T04:08:43;14.25;;;4.82;;
58360;SDS011;44164;44.954;10.068;2023-06-10T04:11:09;7.65;;;4.53;;
58360;SDS011;44164;44.954;10.068;2023-06-10T04:13:35;7.07;;;4.82;;
58360;SDS011;44164;44.954;10.068;2023-06-10T04:16:02;6.27;;;4.03;;
58360;SDS011;44164;44.954;10.068;2023-06-10T04:18:29;8.57;;;4.72;;
58360;SDS011;44164;44.954;10.068;2023-06-10T04:20:58;12.70;;;4.63;;
58360;SDS011;44164;44.954;10.068;2023-06-10T04:23:24;10.52;;;5.47;;
58360;SDS011;44164;44.954;10.068;2023-06-10T04:25:51;12.05;;;4.80;;
58360;SDS011;44164;44.954;10.068;2023-06-10T04:28:18;13.75;;;4.97;;
58360;SDS011;44164;44.954;10.068;2023-06-10T04:30:45;9.45;;;5.10;;
58360;SDS011;44164;44.954;10.068;2023-06-10T04:33:12;6.68;;;4.40;;
58360;SDS011;44164;44.954;10.068;2023-06-10T04:35:40;11.20;;;5.60;;
58360;SDS011;44164;44.954;10.068;2023-06-10T04:38:08;10.25;;;5.57;;
58360;SDS011;44164;44.954;10.068;2023-06-10T04:40:34;9.88;;;5.32;;
58360;SDS011;44164;44.954;10.068;2023-06-10T04:43:02;9.50;;;5.15;;
58360;SDS011;44164;44.954;10.068;2023-06-10T04:45:30;22.30;;;4.80;;
58360;SDS011;44164;44.954;10.068;2023-06-10T04:47:57;10.63;;;4.82;;
58360;SDS011;44164;44.954;10.068;2023-06-10T04:50:24;13.15;;;4.95;;
58360;SDS011;44164;44.954;10.068;2023-06-10T04:52:50;8.40;;;4.45;;
58360;SDS011;44164;44.954;10.068;2023-06-10T04:55:16;10.27;;;5.43;;
58360;SDS011;44164;44.954;10.068;2023-06-10T04:57:42;14.80;;;5.03;;
58360;SDS011;44164;44.954;10.068;2023-06-10T05:00:09;11.50;;;4.85;;
58360;SDS011;44164;44.954;10.068;2023-06-10T05:02:35;11.90;;;5.40;;
58360;SDS011;44164;44.954;10.068;2023-06-10T05:05:01;9.70;;;4.57;;
58360;SDS011;44164;44.954;10.068;2023-06-10T05:07:27;17.35;;;5.13;;
58360;SDS011;44164;44.954;10.068;2023-06-10T05:09:53;10.88;;;4.78;;
58360;SDS011;44164;44.954;10.068;2023-06-10T05:12:20;10.80;;;4.63;;
58360;SDS011;44164;44.954;10.068;2023-06-10T05:14:46;11.63;;;5.18;;
58360;SDS011;44164;44.954;10.068;2023-06-10T05:17:12;9.20;;;5.13;;
58360;SDS011;44164;44.954;10.068;2023-06-10T05:19:38;8.10;;;4.70;;
58360;SDS011;44164;44.954;10.068;2023-06-10T05:22:04;9.32;;;4.65;;
58360;SDS011;44164;44.954;10.068;2023-06-10T05:24:30;12.30;;;4.65;;
58360;SDS011;44164;44.954;10.068;2023-06-10T05:26:56;14.82;;;4.95;;
58360;SDS011;44164;44.954;10.068;2023-06-10T05:29:23;14.02;;;5.05;;
58360;SDS011;44164;44.954;10.068;2023-06-10T05:31:49;10.32;;;4.45;;
58360;SDS011;44164;44.954;10.068;2023-06-10T05:34:15;7.68;;;4.65;;
58360;SDS011;44164;44.954;10.068;2023-06-10T05:36:41;7.95;;;4.35;;
58360;SDS011;44164;44.954;10.068;2023-06-10T05:39:07;12.95;;;5.93;;
58360;SDS011;44164;44.954;10.068;2023-06-10T05:41:34;8.83;;;4.57;;
58360;SDS011;44164;44.954;10.068;2023-06-10T05:44:00;8.73;;;4.70;;
58360;SDS011;44164;44.954;10.068;2023-06-10T05:46:26;9.00;;;4.65;;
58360;SDS011;44164;44.954;10.068;2023-06-10T05:48:53;9.10;;;4.90;;
58360;SDS011;44164;44.954;10.068;2023-06-10T05:51:19;8.18;;;4.30;;
58360;SDS011;44164;44.954;10.068;2023-06-10T05:53:45;10.32;;;5.03;;
58360;SDS011;44164;44.954;10.068;2023-06-10T05:56:13;13.23;;;4.13;;
58360;SDS011;44164;44.954;10.068;2023-06-10T05:58:39;10.35;;;4.75;;
58360;SDS011;44164;44.954;10.068;2023-06-10T06:01:05;8.93;;;4.05;;
58360;SDS011;44164;44.954;10.068;2023-06-10T06:03:31;10.40;;;4.10;;
58360;SDS011;44164;44.954;10.068;2023-06-10T06:05:57;6.35;;;4.18;;
58360;SDS011;44164;44.954;10.068;2023-06-10T06:08:24;8.02;;;4.00;;
58360;SDS011;44164;44.954;10.068;2023-06-10T06:10:50;8.18;;;4.55;;
58360;SDS011;44164;44.954;10.068;2023-06-10T06:13:16;6.50;;;3.38;;
58360;SDS011;44164;44.954;10.068;2023-06-10T06:15:42;8.50;;;3.35;;
58360;SDS011;44164;44.954;10.068;2023-06-10T06:18:08;12.70;;;4.05;;
58360;SDS011;44164;44.954;10.068;2023-06-10T06:20:35;9.20;;;3.67;;
58360;SDS011;44164;44.954;10.068;2023-06-10T06:23:01;5.78;;;3.40;;
58360;SDS011;44164;44.954;10.068;2023-06-10T06:25:27;4.45;;;3.05;;
58360;SDS011;44164;44.954;10.068;2023-06-10T06:27:53;9.73;;;3.85;;
58360;SDS011;44164;44.954;10.068;2023-06-10T06:30:19;5.13;;;3.50;;
58360;SDS011;44164;44.954;10.068;2023-06-10T06:32:45;6.00;;;3.22;;
58360;SDS011;44164;44.954;10.068;2023-06-10T06:35:11;6.60;;;3.45;;
58360;SDS011;44164;44.954;10.068;2023-06-10T06:37:37;6.20;;;3.63;;
58360;SDS011;44164;44.954;10.068;2023-06-10T06:40:16;6.45;;;3.30;;
58360;SDS011;44164;44.954;10.068;2023-06-10T06:42:42;5.05;;;2.85;;
58360;SDS011;44164;44.954;10.068;2023-06-10T06:45:17;8.48;;;3.38;;
58360;SDS011;44164;44.954;10.068;2023-06-10T06:47:43;5.22;;;3.00;;
58360;SDS011;44164;44.954;10.068;2023-06-10T06:50:09;7.47;;;3.40;;
58360;SDS011;44164;44.954;10.068;2023-06-10T06:52:35;9.38;;;3.40;;
58360;SDS011;44164;44.954;10.068;2023-06-10T06:55:02;4.93;;;2.85;;
58360;SDS011;44164;44.954;10.068;2023-06-10T06:57:28;4.88;;;2.58;;
58360;SDS011;44164;44.954;10.068;2023-06-10T06:59:54;6.00;;;2.85;;
58360;SDS011;44164;44.954;10.068;2023-06-10T07:02:20;5.70;;;2.65;;
58360;SDS011;44164;44.954;10.068;2023-06-10T07:04:46;5.97;;;2.65;;
58360;SDS011;44164;44.954;10.068;2023-06-10T07:07:15;6.38;;;3.45;;
58360;SDS011;44164;44.954;10.068;2023-06-10T07:09:41;4.25;;;2.50;;
58360;SDS011;44164;44.954;10.068;2023-06-10T07:12:07;5.50;;;2.88;;
58360;SDS011;44164;44.954;10.068;2023-06-10T07:14:34;4.97;;;2.40;;
58360;SDS011;44164;44.954;10.068;2023-06-10T07:17:00;5.30;;;2.65;;
58360;SDS011;44164;44.954;10.068;2023-06-10T07:19:26;8.80;;;3.15;;
58360;SDS011;44164;44.954;10.068;2023-06-10T07:21:52;3.55;;;3.20;;
58360;SDS011;44164;44.954;10.068;2023-06-10T07:24:18;4.80;;;3.10;;
58360;SDS011;44164;44.954;10.068;2023-06-10T07:26:45;5.53;;;3.17;;
58360;SDS011;44164;44.954;10.068;2023-06-10T07:29:11;4.13;;;2.60;;
58360;SDS011;44164;44.954;10.068;2023-06-10T07:31:38;5.25;;;2.90;;
58360;SDS011;44164;44.954;10.068;2023-06-10T07:34:04;4.18;;;3.28;;
58360;SDS011;44164;44.954;10.068;2023-06-10T07:36:30;7.15;;;2.50;;
58360;SDS011;44164;44.954;10.068;2023-06-10T07:38:56;5.40;;;2.72;;
58360;SDS011;44164;44.954;10.068;2023-06-10T07:41:23;5.97;;;2.97;;
58360;SDS011;44164;44.954;10.068;2023-06-10T07:46:20;4.35;;;2.97;;
58360;SDS011;44164;44.954;10.068;2023-06-10T07:48:47;5.60;;;2.63;;
58360;SDS011;44164;44.954;10.068;2023-06-10T07:51:17;4.68;;;2.67;;
58360;SDS011;44164;44.954;10.068;2023-06-10T07:53:43;3.95;;;2.47;;
58360;SDS011;44164;44.954;10.068;2023-06-10T07:56:09;5.15;;;2.85;;
58360;SDS011;44164;44.954;10.068;2023-06-10T07:58:35;4.57;;;2.53;;
58360;SDS011;44164;44.954;10.068;2023-06-10T08:01:01;6.60;;;3.10;;
58360;SDS011;44164;44.954;10.068;2023-06-10T08:03:27;5.43;;;2.90;;
58360;SDS011;44164;44.954;10.068;2023-06-10T08:05:53;4.22;;;2.70;;
58360;SDS011;44164;44.954;10.068;2023-06-10T08:08:19;3.88;;;2.67;;
58360;SDS011;44164;44.954;10.068;2023-06-10T08:10:46;6.97;;;2.55;;
58360;SDS011;44164;44.954;10.068;2023-06-10T08:13:12;4.30;;;2.38;;
58360;SDS011;44164;44.954;10.068;2023-06-10T08:15:38;3.17;;;2.47;;
58360;SDS011;44164;44.954;10.068;2023-06-10T08:18:04;6.35;;;3.35;;
58360;SDS011;44164;44.954;10.068;2023-06-10T08:20:30;6.53;;;2.75;;
58360;SDS011;44164;44.954;10.068;2023-06-10T08:22:56;5.38;;;2.72;;
58360;SDS011;44164;44.954;10.068;2023-06-10T08:25:22;4.32;;;2.42;;
58360;SDS011;44164;44.954;10.068;2023-06-10T08:27:49;3.92;;;2.45;;
58360;SDS011;44164;44.954;10.068;2023-06-10T08:30:16;4.07;;;2.22;;
58360;SDS011;44164;44.954;10.068;2023-06-10T08:32:43;4.07;;;2.50;;
58360;SDS011;44164;44.954;10.068;2023-06-10T08:35:10;3.95;;;1.90;;
58360;SDS011;44164;44.954;10.068;2023-06-10T08:37:36;4.90;;;2.13;;
58360;SDS011;44164;44.954;10.068;2023-06-10T08:40:02;5.80;;;2.17;;
58360;SDS011;44164;44.954;10.068;2023-06-10T08:45:28;5.75;;;2.83;;
58360;SDS011;44164;44.954;10.068;2023-06-10T08:47:57;3.70;;;2.10;;
58360;SDS011;44164;44.954;10.068;2023-06-10T08:50:23;4.97;;;2.60;;
58360;SDS011;44164;44.954;10.068;2023-06-10T08:52:50;4.75;;;2.60;;
58360;SDS011;44164;44.954;10.068;2023-06-10T08:55:23;3.92;;;2.15;;
58360;SDS011;44164;44.954;10.068;2023-06-10T08:57:53;4.28;;;2.60;;
58360;SDS011;44164;44.954;10.068;2023-06-10T09:00:19;6.63;;;2.85;;
58360;SDS011;44164;44.954;10.068;2023-06-10T09:02:45;5.20;;;2.25;;
58360;SDS011;44164;44.954;10.068;2023-06-10T09:05:12;4.57;;;2.50;;
58360;SDS011;44164;44.954;10.068;2023-06-10T09:07:39;6.10;;;2.10;;
58360;SDS011;44164;44.954;10.068;2023-06-10T09:10:05;3.42;;;2.08;;
58360;SDS011;44164;44.954;10.068;2023-06-10T09:12:35;2.75;;;1.80;;
58360;SDS011;44164;44.954;10.068;2023-06-10T09:15:01;3.53;;;2.10;;
58360;SDS011;44164;44.954;10.068;2023-06-10T09:17:28;3.55;;;1.98;;
58360;SDS011;44164;44.954;10.068;2023-06-10T09:19:54;3.80;;;2.10;;
58360;SDS011;44164;44.954;10.068;2023-06-10T09:22:23;3.28;;;1.83;;
58360;SDS011;44164;44.954;10.068;2023-06-10T09:25:01;4.35;;;2.45;;
58360;SDS011;44164;44.954;10.068;2023-06-10T09:27:31;4.25;;;2.17;;
58360;SDS011;44164;44.954;10.068;2023-06-10T09:29:58;3.90;;;2.13;;
58360;SDS011;44164;44.954;10.068;2023-06-10T09:32:24;5.20;;;3.10;;
58360;SDS011;44164;44.954;10.068;2023-06-10T09:34:50;3.63;;;2.38;;
58360;SDS011;44164;44.954;10.068;2023-06-10T09:37:23;4.47;;;2.42;;
58360;SDS011;44164;44.954;10.068;2023-06-10T09:42:45;3.50;;;2.10;;
58360;SDS011;44164;44.954;10.068;2023-06-10T09:45:14;4.03;;;1.95;;
58360;SDS011;44164;44.954;10.068;2023-06-10T09:47:41;3.33;;;1.80;;
58360;SDS011;44164;44.954;10.068;2023-06-10T09:50:07;5.00;;;2.13;;
58360;SDS011;44164;44.954;10.068;2023-06-10T09:52:34;3.13;;;1.70;;
58360;SDS011;44164;44.954;10.068;2023-06-10T09:55:00;6.28;;;2.78;;
58360;SDS011;44164;44.954;10.068;2023-06-10T09:57:31;4.07;;;2.08;;
58360;SDS011;44164;44.954;10.068;2023-06-10T10:00:07;4.35;;;2.20;;
58360;SDS011;44164;44.954;10.068;2023-06-10T10:02:44;4.13;;;2.33;;
58360;SDS011;44164;44.954;10.068;2023-06-10T10:05:13;3.67;;;2.22;;
58360;SDS011;44164;44.954;10.068;2023-06-10T10:07:41;4.25;;;2.42;;
58360;SDS011;44164;44.954;10.068;2023-06-10T10:10:08;4.85;;;2.42;;
58360;SDS011;44164;44.954;10.068;2023-06-10T10:12:35;5.07;;;2.15;;
58360;SDS011;44164;44.954;10.068;2023-06-10T10:15:03;4.38;;;2.15;;
58360;SDS011;44164;44.954;10.068;2023-06-10T10:17:40;6.45;;;2.60;;
58360;SDS011;44164;44.954;10.068;2023-06-10T10:20:08;4.88;;;2.38;;
58360;SDS011;44164;44.954;10.068;2023-06-10T10:22:39;3.92;;;2.33;;
58360;SDS011;44164;44.954;10.068;2023-06-10T10:25:08;3.45;;;2.25;;
58360;SDS011;44164;44.954;10.068;2023-06-10T10:27:40;3.85;;;2.38;;
58360;SDS011;44164;44.954;10.068;2023-06-10T10:30:21;2.80;;;2.00;;
58360;SDS011;44164;44.954;10.068;2023-06-10T10:35:24;7.05;;;2.47;;
58360;SDS011;44164;44.954;10.068;2023-06-10T10:37:52;2.50;;;1.80;;
58360;SDS011;44164;44.954;10.068;2023-06-10T10:40:19;3.67;;;2.00;;
58360;SDS011;44164;44.954;10.068;2023-06-10T10:45:13;4.18;;;2.10;;
58360;SDS011;44164;44.954;10.068;2023-06-10T10:47:39;6.28;;;2.65;;
58360;SDS011;44164;44.954;10.068;2023-06-10T10:50:12;4.13;;;2.22;;
58360;SDS011;44164;44.954;10.068;2023-06-10T10:53:13;5.00;;;2.30;;
58360;SDS011;44164;44.954;10.068;2023-06-10T10:55:32;5.75;;;2.38;;
58360;SDS011;44164;44.954;10.068;2023-06-10T10:58:06;4.05;;;2.00;;
58360;SDS011;44164;44.954;10.068;2023-06-10T11:00:33;5.57;;;1.90;;
58360;SDS011;44164;44.954;10.068;2023-06-10T11:05:45;3.95;;;1.90;;
58360;SDS011;44164;44.954;10.068;2023-06-10T11:08:45;5.07;;;2.20;;
58360;SDS011;44164;44.954;10.068;2023-06-10T11:11:17;3.33;;;2.00;;
58360;SDS011;44164;44.954;10.068;2023-06-10T11:16:39;4.63;;;2.28;;
58360;SDS011;44164;44.954;10.068;2023-06-10T11:19:07;4.53;;;2.00;;
58360;SDS011;44164;44.954;10.068;2023-06-10T11:24:28;4.35;;;1.90;;
58360;SDS011;44164;44.954;10.068;2023-06-10T11:27:09;5.68;;;2.47;;
58360;SDS011;44164;44.954;10.068;2023-06-10T11:29:54;3.53;;;2.00;;
58360;SDS011;44164;44.954;10.068;2023-06-10T11:32:44;3.25;;;1.88;;
58360;SDS011;44164;44.954;10.068;2023-06-10T11:35:10;2.88;;;1.90;;
58360;SDS011;44164;44.954;10.068;2023-06-10T11:37:36;2.90;;;2.13;;
58360;SDS011;44164;44.954;10.068;2023-06-10T11:40:02;3.63;;;2.03;;
58360;SDS011;44164;44.954;10.068;2023-06-10T11:42:29;2.80;;;1.92;;
58360;SDS011;44164;44.954;10.068;2023-06-10T11:44:55;3.30;;;1.77;;
58360;SDS011;44164;44.954;10.068;2023-06-10T11:47:21;2.75;;;1.88;;
58360;SDS011;44164;44.954;10.068;2023-06-10T11:49:57;3.30;;;1.83;;
58360;SDS011;44164;44.954;10.068;2023-06-10T11:52:26;5.93;;;2.20;;
58360;SDS011;44164;44.954;10.068;2023-06-10T11:54:54;4.50;;;1.83;;
58360;SDS011;44164;44.954;10.068;2023-06-10T11:57:21;3.60;;;1.98;;
58360;SDS011;44164;44.954;10.068;2023-06-10T11:59:47;4.93;;;2.05;;
58360;SDS011;44164;44.954;10.068;2023-06-10T12:02:16;6.10;;;2.65;;
58360;SDS011;44164;44.954;10.068;2023-06-10T12:04:42;6.07;;;2.45;;
58360;SDS011;44164;44.954;10.068;2023-06-10T12:07:08;4.47;;;2.15;;
58360;SDS011;44164;44.954;10.068;2023-06-10T12:09:44;4.68;;;2.03;;
58360;SDS011;44164;44.954;10.068;2023-06-10T12:12:10;3.95;;;2.17;;
58360;SDS011;44164;44.954;10.068;2023-06-10T12:14:56;2.90;;;1.77;;
58360;SDS011;44164;44.954;10.068;2023-06-10T12:17:34;3.47;;;2.28;;
58360;SDS011;44164;44.954;10.068;2023-06-10T12:20:03;5.10;;;1.83;;
58360;SDS011;44164;44.954;10.068;2023-06-10T12:22:38;3.25;;;1.92;;
58360;SDS011;44164;44.954;10.068;2023-06-10T12:25:06;4.40;;;1.88;;
58360;SDS011;44164;44.954;10.068;2023-06-10T12:27:33;3.37;;;2.07;;
58360;SDS011;44164;44.954;10.068;2023-06-10T12:30:00;2.75;;;1.90;;
58360;SDS011;44164;44.954;10.068;2023-06-10T12:32:36;3.03;;;2.00;;
58360;SDS011;44164;44.954;10.068;2023-06-10T12:35:06;3.47;;;2.30;;
58360;SDS011;44164;44.954;10.068;2023-06-10T12:37:34;4.35;;;1.98;;
58360;SDS011;44164;44.954;10.068;2023-06-10T12:40:00;3.92;;;2.25;;
58360;SDS011;44164;44.954;10.068;2023-06-10T12:42:29;3.42;;;1.90;;
58360;SDS011;44164;44.954;10.068;2023-06-10T12:44:56;4.25;;;1.92;;
58360;SDS011;44164;44.954;10.068;2023-06-10T12:47:29;3.53;;;2.30;;
58360;SDS011;44164;44.954;10.068;2023-06-10T12:50:00;4.70;;;1.83;;
58360;SDS011;44164;44.954;10.068;2023-06-10T12:52:27;2.95;;;2.10;;
58360;SDS011;44164;44.954;10.068;2023-06-10T12:54:53;8.13;;;2.28;;
58360;SDS011;44164;44.954;10.068;2023-06-10T12:57:20;5.63;;;2.50;;
58360;SDS011;44164;44.954;10.068;2023-06-10T12:59:47;2.70;;;1.83;;
58360;SDS011;44164;44.954;10.068;2023-06-10T13:02:18;4.82;;;2.38;;
58360;SDS011;44164;44.954;10.068;2023-06-10T13:04:46;2.88;;;1.77;;
58360;SDS011;44164;44.954;10.068;2023-06-10T13:07:12;5.30;;;2.55;;
58360;SDS011;44164;44.954;10.068;2023-06-10T13:09:38;5.63;;;2.30;;
58360;SDS011;44164;44.954;10.068;2023-06-10T13:12:05;3.22;;;1.70;;
58360;SDS011;44164;44.954;10.068;2023-06-10T13:14:32;5.15;;;2.20;;
58360;SDS011;44164;44.954;10.068;2023-06-10T13:16:58;5.88;;;2.20;;
58360;SDS011;44164;44.954;10.068;2023-06-10T13:19:24;4.78;;;2.38;;
58360;SDS011;44164;44.954;10.068;2023-06-10T13:21:51;3.90;;;1.90;;
58360;SDS011;44164;44.954;10.068;2023-06-10T13:24:17;3.47;;;2.10;;
58360;SDS011;44164;44.954;10.068;2023-06-10T13:26:43;3.65;;;2.15;;
58360;SDS011;44164;44.954;10.068;2023-06-10T13:29:09;3.08;;;1.88;;
58360;SDS011;44164;44.954;10.068;2023-06-10T13:31:40;3.83;;;1.98;;
58360;SDS011;44164;44.954;10.068;2023-06-10T13:34:06;3.80;;;1.83;;
58360;SDS011;44164;44.954;10.068;2023-06-10T13:36:32;3.08;;;2.10;;
58360;SDS011;44164;44.954;10.068;2023-06-10T13:38:58;5.13;;;2.00;;
58360;SDS011;44164;44.954;10.068;2023-06-10T13:41:25;5.25;;;2.30;;
58360;SDS011;44164;44.954;10.068;2023-06-10T13:43:53;3.90;;;1.83;;
58360;SDS011;44164;44.954;10.068;2023-06-10T13:46:19;2.67;;;2.03;;
58360;SDS011;44164;44.954;10.068;2023-06-10T13:48:47;3.70;;;2.38;;
58360;SDS011;44164;44.954;10.068;2023-06-10T13:51:13;5.32;;;2.25;;
58360;SDS011;44164;44.954;10.068;2023-06-10T13:53:39;4.10;;;2.17;;
58360;SDS011;44164;44.954;10.068;2023-06-10T13:56:05;3.38;;;2.15;;
58360;SDS011;44164;44.954;10.068;2023-06-10T13:58:31;4.25;;;2.10;;
58360;SDS011;44164;44.954;10.068;2023-06-10T14:00:57;3.75;;;2.13;;
58360;SDS011;44164;44.954;10.068;2023-06-10T14:03:24;3.50;;;1.88;;
58360;SDS011;44164;44.954;10.068;2023-06-10T14:05:50;3.97;;;1.95;;
58360;SDS011;44164;44.954;10.068;2023-06-10T14:08:16;4.00;;;2.33;;
58360;SDS011;44164;44.954;10.068;2023-06-10T14:10:43;4.30;;;2.13;;
58360;SDS011;44164;44.954;10.068;2023-06-10T14:13:09;5.00;;;2.53;;
58360;SDS011;44164;44.954;10.068;2023-06-10T14:15:35;3.10;;;2.15;;
58360;SDS011;44164;44.954;10.068;2023-06-10T14:18:02;3.95;;;1.75;;
58360;SDS011;44164;44.954;10.068;2023-06-10T14:20:28;3.40;;;2.00;;
58360;SDS011;44164;44.954;10.068;2023-06-10T14:22:57;2.83;;;1.85;;
58360;SDS011;44164;44.954;10.068;2023-06-10T14:25:24;6.18;;;2.38;;
58360;SDS011;44164;44.954;10.068;2023-06-10T14:27:50;3.10;;;2.00;;
58360;SDS011;44164;44.954;10.068;2023-06-10T14:30:16;4.78;;;2.08;;
58360;SDS011;44164;44.954;10.068;2023-06-10T14:32:42;3.08;;;2.17;;
58360;SDS011;44164;44.954;10.068;2023-06-10T14:35:09;4.30;;;2.15;;
58360;SDS011;44164;44.954;10.068;2023-06-10T14:37:35;3.80;;;2.10;;
58360;SDS011;44164;44.954;10.068;2023-06-10T14:40:03;3.33;;;2.05;;
58360;SDS011;44164;44.954;10.068;2023-06-10T14:42:30;3.95;;;2.08;;
58360;SDS011;44164;44.954;10.068;2023-06-10T14:44:58;4.88;;;2.00;;
58360;SDS011;44164;44.954;10.068;2023-06-10T14:47:24;4.38;;;1.90;;
58360;SDS011;44164;44.954;10.068;2023-06-10T14:49:51;2.20;;;1.55;;
58360;SDS011;44164;44.954;10.068;2023-06-10T14:52:17;3.47;;;2.33;;
58360;SDS011;44164;44.954;10.068;2023-06-10T14:54:43;3.40;;;1.85;;
58360;SDS011;44164;44.954;10.068;2023-06-10T14:57:09;4.10;;;2.03;;
58360;SDS011;44164;44.954;10.068;2023-06-10T14:59:36;4.27;;;2.37;;
58360;SDS011;44164;44.954;10.068;2023-06-10T15:02:02;4.45;;;2.42;;